Airfield :
LOGIN :

Register | Disclaimer

   EN    FR    IT 

 










Legend :    VFR   Marginal VFR   IFR   Intensive IFR   Very Intensive IFR
Visi :
Ceiling :
>= 8 km
>= 3000ft
5 to 8 km
1000 to 3000 ft
1500m to 5 km
500 to 1000 ft
800 to 1500m
200 to 500 ft
< 800m
< 200 ft
Symbols :   Thunderstorms  Fog  Heavy snow  Heavy precipitations  Wind > 20 kt
SIGMETs :     Misc.  Thunderstorms  Icing  Turbulence  Mountain Waves  Volcanic Ashes







- Airport Elevation : 782 ft
- IATA code : BGY


LIME - Orio al Serio International - Bergamo

CURRENT METAR :
  • 192250Z 33004KT 310V010 CAVOK 21/15 Q1012 NOSIG

EXPIRED METARs :
  • 192220Z 34004KT 280V020 CAVOK 22/15 Q1012 NOSIG
  • 192150Z 34003KT 290V030 CAVOK 22/15 Q1012 NOSIG
  • 192120Z 35004KT 320V020 CAVOK 23/15 Q1012 NOSIG
  • 192050Z 35003KT 310V020 CAVOK 23/15 Q1012 NOSIG
  • 192020Z 36004KT 300V030 CAVOK 23/15 Q1012 NOSIG

TAF TAF LIME
Valid from the 19 at 18:00 until the 20 at 18:00 UTC


191700Z 1918/2018 VRB05KT 9999 SCT050
PROB40
TEMPO 2012/2018 TSRA
No reported NOTAMs for that airfield.



MET'MAP, your aeronautical weather chart ! - Copyright ORBIFLY December 2007 - Disclaimer

ORBIFLY MET'MAP TEAM :

Programming & Development : Alexandra Zaïnal
Concept & Development : Baudouin d'Aumeries
Co-Development & Prog : Marc-Olivier Méhu
Technical & hardware support : Manuel Goepfert

Contact : metmap@orbifly.com




SOURCES & CREDITS :

   NOAA